This is the latest recevied weather packets stored in our database for station/object OE-11344. If no packets are shown the sender has not sent any weather packets the latest 10 day(s).
| Time | Temp. | Humidity | Pressure | Rain* | Wind** | Luminosity | Snow |
|---|---|---|---|---|---|---|---|
| 1787658085 | 15° C | 73% | 848.7 hPa | 0 mm | - | 423 W/m² | - |
| 1787657711 | 15° C | 70% | 848.7 hPa | 0 mm | - | 217 W/m² | - |
| 1787657111 | 15° C | 69% | 848.6 hPa | 0 mm | - | 181 W/m² | - |
| 1787654485 | 14.44° C | 71% | 848.4 hPa | 0 mm | - | 411 W/m² | - |
| 1787654108 | 14.44° C | 75% | 848.4 hPa | 0 mm | - | 350 W/m² | - |
| 1787652311 | 15.56° C | 58% | 848 hPa | 0 mm | - | 441 W/m² | - |
| 1787651711 | 15.56° C | 59% | 848.3 hPa | 0 mm | - | 338 W/m² | - |
| 1787650885 | 15.56° C | 62% | 848.1 hPa | 0 mm | - | 368 W/m² | - |
| 1787650512 | 15.56° C | 61% | 848.3 hPa | 0 mm | - | 453 W/m² | - |
| 1787649912 | 15° C | 61% | 848.4 hPa | 0 mm | - | 441 W/m² | - |
| 1787649084 | 14.44° C | 63% | 848.5 hPa | 0 mm | - | 308 W/m² | - |
| 1787648712 | 14.44° C | 62% | 848.5 hPa | 0 mm | - | 236 W/m² | - |
| 1787648112 | 15° C | 60% | 848.5 hPa | 0 mm | - | 205 W/m² | - |
| 1787647284 | 14.44° C | 61% | 848.4 hPa | 0 mm | - | 236 W/m² | - |
| 1787646912 | 13.89° C | 73% | 848.5 hPa | 0 mm | - | 193 W/m² | - |
| 1787646312 | 14.44° C | 64% | 848.5 hPa | 0.25 mm | - | 151 W/m² | - |
| 1787645484 | 14.44° C | 64% | 848.5 hPa | 0.25 mm | - | 157 W/m² | - |
| 1787645112 | 14.44° C | 62% | 848.6 hPa | 0.51 mm | - | 169 W/m² | - |
| 1787644512 | 13.89° C | 65% | 848.6 hPa | 0.76 mm | - | 181 W/m² | - |
| 1787643685 | 13.89° C | 68% | 848.6 hPa | 1.02 mm | - | 133 W/m² | - |
| 1787643312 | 13.89° C | 67% | 848.7 hPa | 1.52 mm | - | 121 W/m² | - |
| 1787642712 | 13.89° C | 66% | 848.7 hPa | 1.52 mm | - | 72 W/m² | - |
| 1787641885 | 13.89° C | 66% | 848.7 hPa | 1.78 mm | - | 66 W/m² | - |
| 1787641511 | 13.89° C | 67% | 848.4 hPa | 1.78 mm | - | 48 W/m² | - |
| 1787640911 | 13.33° C | 72% | 848.2 hPa | 1.78 mm | - | 42 W/m² | - |
* Rain latest hour (hover to see other rain measurements)
** Current wind speed in m/s (hover to see current wind gust speed)